sensor_id;sensor_type;location;lat;lon;timestamp;P1;durP1;ratioP1;P2;durP2;ratioP2
72427;SDS011;60419;48.880;18.036;2022-07-29T00:01:20;8.23;;;5.00;;
72427;SDS011;60419;48.880;18.036;2022-07-29T00:04:06;10.25;;;4.82;;
72427;SDS011;60419;48.880;18.036;2022-07-29T00:06:51;10.57;;;4.70;;
72427;SDS011;60419;48.880;18.036;2022-07-29T00:09:36;8.30;;;4.70;;
72427;SDS011;60419;48.880;18.036;2022-07-29T00:12:23;8.27;;;4.90;;
72427;SDS011;60419;48.880;18.036;2022-07-29T00:15:09;7.47;;;4.82;;
72427;SDS011;60419;48.880;18.036;2022-07-29T00:17:54;8.85;;;4.70;;
72427;SDS011;60419;48.880;18.036;2022-07-29T00:20:40;7.97;;;4.90;;
72427;SDS011;60419;48.880;18.036;2022-07-29T00:23:25;7.30;;;4.93;;
72427;SDS011;60419;48.880;18.036;2022-07-29T00:26:10;7.63;;;4.93;;
72427;SDS011;60419;48.880;18.036;2022-07-29T00:28:56;9.40;;;4.90;;
72427;SDS011;60419;48.880;18.036;2022-07-29T00:31:41;7.28;;;4.82;;
72427;SDS011;60419;48.880;18.036;2022-07-29T00:34:27;5.50;;;4.18;;
72427;SDS011;60419;48.880;18.036;2022-07-29T00:37:30;6.95;;;4.43;;
72427;SDS011;60419;48.880;18.036;2022-07-29T00:40:16;7.45;;;4.53;;
72427;SDS011;60419;48.880;18.036;2022-07-29T00:43:01;7.50;;;4.50;;
72427;SDS011;60419;48.880;18.036;2022-07-29T00:45:47;6.50;;;4.47;;
72427;SDS011;60419;48.880;18.036;2022-07-29T00:48:32;6.97;;;4.78;;
72427;SDS011;60419;48.880;18.036;2022-07-29T00:51:18;6.45;;;4.50;;
72427;SDS011;60419;48.880;18.036;2022-07-29T00:54:03;6.55;;;5.32;;
72427;SDS011;60419;48.880;18.036;2022-07-29T00:56:51;6.55;;;5.07;;
72427;SDS011;60419;48.880;18.036;2022-07-29T00:59:36;10.73;;;5.10;;
72427;SDS011;60419;48.880;18.036;2022-07-29T01:02:22;9.57;;;4.50;;
72427;SDS011;60419;48.880;18.036;2022-07-29T01:05:07;6.80;;;4.82;;
72427;SDS011;60419;48.880;18.036;2022-07-29T01:07:53;7.15;;;4.43;;
72427;SDS011;60419;48.880;18.036;2022-07-29T01:10:39;7.00;;;4.75;;
72427;SDS011;60419;48.880;18.036;2022-07-29T01:13:27;7.80;;;5.13;;
72427;SDS011;60419;48.880;18.036;2022-07-29T01:22:28;7.75;;;5.05;;
72427;SDS011;60419;48.880;18.036;2022-07-29T01:31:42;7.03;;;5.07;;
72427;SDS011;60419;48.880;18.036;2022-07-29T01:40:45;7.03;;;4.93;;
72427;SDS011;60419;48.880;18.036;2022-07-29T01:43:36;8.57;;;5.03;;
72427;SDS011;60419;48.880;18.036;2022-07-29T01:46:33;6.70;;;4.97;;
72427;SDS011;60419;48.880;18.036;2022-07-29T01:49:24;7.00;;;4.78;;
72427;SDS011;60419;48.880;18.036;2022-07-29T01:52:15;7.85;;;4.40;;
72427;SDS011;60419;48.880;18.036;2022-07-29T01:55:07;7.43;;;5.00;;
72427;SDS011;60419;48.880;18.036;2022-07-29T01:57:58;7.40;;;5.50;;
72427;SDS011;60419;48.880;18.036;2022-07-29T02:00:45;7.43;;;4.97;;
72427;SDS011;60419;48.880;18.036;2022-07-29T02:03:33;7.03;;;5.10;;
72427;SDS011;60419;48.880;18.036;2022-07-29T02:06:21;7.18;;;5.15;;
72427;SDS011;60419;48.880;18.036;2022-07-29T02:09:08;8.45;;;4.97;;
72427;SDS011;60419;48.880;18.036;2022-07-29T02:11:57;8.05;;;4.90;;
72427;SDS011;60419;48.880;18.036;2022-07-29T02:14:45;6.78;;;5.45;;
72427;SDS011;60419;48.880;18.036;2022-07-29T02:17:35;7.32;;;5.47;;
72427;SDS011;60419;48.880;18.036;2022-07-29T02:20:25;7.35;;;5.68;;
72427;SDS011;60419;48.880;18.036;2022-07-29T02:23:23;8.15;;;5.32;;
72427;SDS011;60419;48.880;18.036;2022-07-29T02:26:09;6.93;;;4.88;;
72427;SDS011;60419;48.880;18.036;2022-07-29T02:28:56;11.05;;;5.63;;
72427;SDS011;60419;48.880;18.036;2022-07-29T02:31:42;5.43;;;4.63;;
72427;SDS011;60419;48.880;18.036;2022-07-29T02:34:29;7.00;;;5.13;;
72427;SDS011;60419;48.880;18.036;2022-07-29T02:37:15;9.57;;;5.75;;
72427;SDS011;60419;48.880;18.036;2022-07-29T02:40:03;10.77;;;6.25;;
72427;SDS011;60419;48.880;18.036;2022-07-29T02:42:53;9.20;;;6.00;;
72427;SDS011;60419;48.880;18.036;2022-07-29T02:45:39;9.50;;;6.55;;
72427;SDS011;60419;48.880;18.036;2022-07-29T02:48:27;8.60;;;6.28;;
72427;SDS011;60419;48.880;18.036;2022-07-29T02:51:32;7.72;;;5.82;;
72427;SDS011;60419;48.880;18.036;2022-07-29T02:54:33;10.02;;;6.10;;
72427;SDS011;60419;48.880;18.036;2022-07-29T03:00:13;8.23;;;6.05;;
72427;SDS011;60419;48.880;18.036;2022-07-29T03:03:00;10.75;;;6.03;;
72427;SDS011;60419;48.880;18.036;2022-07-29T03:05:55;9.57;;;5.90;;
72427;SDS011;60419;48.880;18.036;2022-07-29T03:08:43;9.95;;;5.90;;
72427;SDS011;60419;48.880;18.036;2022-07-29T03:11:30;7.63;;;5.90;;
72427;SDS011;60419;48.880;18.036;2022-07-29T03:14:16;12.13;;;6.22;;
72427;SDS011;60419;48.880;18.036;2022-07-29T03:17:03;8.52;;;5.78;;
72427;SDS011;60419;48.880;18.036;2022-07-29T03:19:50;8.00;;;6.18;;
72427;SDS011;60419;48.880;18.036;2022-07-29T03:22:43;9.95;;;6.30;;
72427;SDS011;60419;48.880;18.036;2022-07-29T03:25:31;8.88;;;5.80;;
72427;SDS011;60419;48.880;18.036;2022-07-29T03:28:17;9.10;;;5.75;;
72427;SDS011;60419;48.880;18.036;2022-07-29T03:31:02;9.07;;;5.97;;
72427;SDS011;60419;48.880;18.036;2022-07-29T03:33:48;10.48;;;6.15;;
72427;SDS011;60419;48.880;18.036;2022-07-29T03:36:33;9.55;;;6.30;;
72427;SDS011;60419;48.880;18.036;2022-07-29T03:39:20;9.13;;;6.35;;
72427;SDS011;60419;48.880;18.036;2022-07-29T03:42:08;8.98;;;6.60;;
72427;SDS011;60419;48.880;18.036;2022-07-29T03:44:57;8.65;;;6.28;;
72427;SDS011;60419;48.880;18.036;2022-07-29T03:47:47;9.73;;;6.70;;
72427;SDS011;60419;48.880;18.036;2022-07-29T03:50:36;9.57;;;6.43;;
72427;SDS011;60419;48.880;18.036;2022-07-29T03:53:22;7.95;;;6.38;;
72427;SDS011;60419;48.880;18.036;2022-07-29T03:56:08;8.57;;;6.03;;
72427;SDS011;60419;48.880;18.036;2022-07-29T03:58:55;9.57;;;6.88;;
72427;SDS011;60419;48.880;18.036;2022-07-29T04:01:41;11.50;;;6.80;;
72427;SDS011;60419;48.880;18.036;2022-07-29T04:04:27;8.25;;;6.30;;
72427;SDS011;60419;48.880;18.036;2022-07-29T04:07:13;10.77;;;6.65;;
72427;SDS011;60419;48.880;18.036;2022-07-29T04:09:59;10.57;;;6.90;;
72427;SDS011;60419;48.880;18.036;2022-07-29T04:12:45;10.35;;;6.55;;
72427;SDS011;60419;48.880;18.036;2022-07-29T04:15:30;12.57;;;6.60;;
72427;SDS011;60419;48.880;18.036;2022-07-29T04:18:16;8.65;;;5.95;;
72427;SDS011;60419;48.880;18.036;2022-07-29T04:21:01;10.02;;;6.00;;
72427;SDS011;60419;48.880;18.036;2022-07-29T04:23:48;11.10;;;6.43;;
72427;SDS011;60419;48.880;18.036;2022-07-29T04:26:34;9.57;;;6.28;;
72427;SDS011;60419;48.880;18.036;2022-07-29T04:29:20;9.25;;;6.35;;
72427;SDS011;60419;48.880;18.036;2022-07-29T04:32:05;11.00;;;6.35;;
72427;SDS011;60419;48.880;18.036;2022-07-29T04:34:51;11.05;;;6.00;;
72427;SDS011;60419;48.880;18.036;2022-07-29T04:37:36;7.72;;;6.10;;
72427;SDS011;60419;48.880;18.036;2022-07-29T04:40:22;7.88;;;6.25;;
72427;SDS011;60419;48.880;18.036;2022-07-29T04:43:07;9.18;;;6.38;;
72427;SDS011;60419;48.880;18.036;2022-07-29T04:45:52;9.00;;;6.40;;
72427;SDS011;60419;48.880;18.036;2022-07-29T04:48:38;8.85;;;6.32;;
72427;SDS011;60419;48.880;18.036;2022-07-29T04:51:23;10.85;;;6.60;;
72427;SDS011;60419;48.880;18.036;2022-07-29T04:54:08;8.85;;;6.50;;
72427;SDS011;60419;48.880;18.036;2022-07-29T04:56:54;11.13;;;6.05;;
72427;SDS011;60419;48.880;18.036;2022-07-29T04:59:39;9.25;;;6.50;;
72427;SDS011;60419;48.880;18.036;2022-07-29T05:02:25;8.68;;;5.75;;
72427;SDS011;60419;48.880;18.036;2022-07-29T05:05:10;8.93;;;5.75;;
72427;SDS011;60419;48.880;18.036;2022-07-29T05:07:55;9.73;;;6.05;;
72427;SDS011;60419;48.880;18.036;2022-07-29T05:10:41;12.55;;;6.88;;
72427;SDS011;60419;48.880;18.036;2022-07-29T05:13:26;7.60;;;5.47;;
72427;SDS011;60419;48.880;18.036;2022-07-29T05:16:13;7.63;;;5.43;;
72427;SDS011;60419;48.880;18.036;2022-07-29T05:18:59;9.50;;;5.78;;
72427;SDS011;60419;48.880;18.036;2022-07-29T05:21:44;6.53;;;5.35;;
72427;SDS011;60419;48.880;18.036;2022-07-29T05:24:29;10.18;;;5.53;;
72427;SDS011;60419;48.880;18.036;2022-07-29T05:27:15;7.47;;;5.18;;
72427;SDS011;60419;48.880;18.036;2022-07-29T05:30:00;7.55;;;5.50;;
72427;SDS011;60419;48.880;18.036;2022-07-29T05:32:46;10.32;;;5.40;;
72427;SDS011;60419;48.880;18.036;2022-07-29T05:35:32;8.13;;;5.03;;
72427;SDS011;60419;48.880;18.036;2022-07-29T05:38:19;9.18;;;5.65;;
72427;SDS011;60419;48.880;18.036;2022-07-29T05:41:05;7.13;;;5.40;;
72427;SDS011;60419;48.880;18.036;2022-07-29T05:43:50;6.95;;;5.53;;
72427;SDS011;60419;48.880;18.036;2022-07-29T05:46:35;7.22;;;5.60;;
72427;SDS011;60419;48.880;18.036;2022-07-29T05:49:21;7.30;;;5.50;;
72427;SDS011;60419;48.880;18.036;2022-07-29T05:52:06;8.23;;;5.35;;
72427;SDS011;60419;48.880;18.036;2022-07-29T05:54:52;9.90;;;5.65;;
72427;SDS011;60419;48.880;18.036;2022-07-29T05:57:37;7.15;;;5.15;;
72427;SDS011;60419;48.880;18.036;2022-07-29T06:00:23;6.00;;;4.80;;
72427;SDS011;60419;48.880;18.036;2022-07-29T06:03:08;9.85;;;5.43;;
72427;SDS011;60419;48.880;18.036;2022-07-29T06:05:54;7.00;;;5.47;;
72427;SDS011;60419;48.880;18.036;2022-07-29T06:08:39;7.65;;;4.95;;
72427;SDS011;60419;48.880;18.036;2022-07-29T06:11:25;7.55;;;4.90;;
72427;SDS011;60419;48.880;18.036;2022-07-29T06:14:10;7.78;;;5.28;;
72427;SDS011;60419;48.880;18.036;2022-07-29T06:16:56;6.97;;;5.20;;
72427;SDS011;60419;48.880;18.036;2022-07-29T06:19:41;7.03;;;4.75;;
72427;SDS011;60419;48.880;18.036;2022-07-29T06:22:27;11.18;;;4.88;;
72427;SDS011;60419;48.880;18.036;2022-07-29T06:25:12;8.80;;;5.20;;
72427;SDS011;60419;48.880;18.036;2022-07-29T06:27:57;7.05;;;4.60;;
72427;SDS011;60419;48.880;18.036;2022-07-29T06:30:43;6.22;;;4.63;;
72427;SDS011;60419;48.880;18.036;2022-07-29T06:33:28;10.38;;;4.70;;
72427;SDS011;60419;48.880;18.036;2022-07-29T06:36:14;6.93;;;4.57;;
72427;SDS011;60419;48.880;18.036;2022-07-29T06:39:00;7.25;;;4.50;;
72427;SDS011;60419;48.880;18.036;2022-07-29T06:41:46;9.95;;;4.90;;
72427;SDS011;60419;48.880;18.036;2022-07-29T06:44:32;7.13;;;4.35;;
72427;SDS011;60419;48.880;18.036;2022-07-29T06:47:18;7.13;;;4.65;;
72427;SDS011;60419;48.880;18.036;2022-07-29T06:50:04;7.13;;;4.43;;
72427;SDS011;60419;48.880;18.036;2022-07-29T06:52:50;9.02;;;4.55;;
72427;SDS011;60419;48.880;18.036;2022-07-29T06:55:35;7.53;;;4.50;;
72427;SDS011;60419;48.880;18.036;2022-07-29T06:58:21;6.60;;;4.10;;
72427;SDS011;60419;48.880;18.036;2022-07-29T07:01:07;6.53;;;4.57;;
72427;SDS011;60419;48.880;18.036;2022-07-29T07:03:52;6.40;;;4.40;;
72427;SDS011;60419;48.880;18.036;2022-07-29T07:06:38;7.82;;;4.38;;
72427;SDS011;60419;48.880;18.036;2022-07-29T07:09:24;7.85;;;4.30;;
72427;SDS011;60419;48.880;18.036;2022-07-29T07:12:09;6.75;;;4.10;;
72427;SDS011;60419;48.880;18.036;2022-07-29T07:14:54;5.90;;;3.80;;
72427;SDS011;60419;48.880;18.036;2022-07-29T07:17:40;6.10;;;3.90;;
72427;SDS011;60419;48.880;18.036;2022-07-29T07:20:25;6.72;;;4.25;;
72427;SDS011;60419;48.880;18.036;2022-07-29T07:23:11;5.25;;;3.97;;
72427;SDS011;60419;48.880;18.036;2022-07-29T07:25:56;6.00;;;3.92;;
72427;SDS011;60419;48.880;18.036;2022-07-29T07:28:42;6.07;;;3.75;;
72427;SDS011;60419;48.880;18.036;2022-07-29T07:31:27;11.05;;;4.18;;
72427;SDS011;60419;48.880;18.036;2022-07-29T07:34:12;7.22;;;3.55;;
72427;SDS011;60419;48.880;18.036;2022-07-29T07:36:58;4.97;;;3.60;;
72427;SDS011;60419;48.880;18.036;2022-07-29T07:39:43;6.32;;;3.42;;
72427;SDS011;60419;48.880;18.036;2022-07-29T07:42:28;6.13;;;4.00;;
72427;SDS011;60419;48.880;18.036;2022-07-29T07:45:14;9.75;;;4.00;;
72427;SDS011;60419;48.880;18.036;2022-07-29T07:47:59;5.50;;;3.50;;
72427;SDS011;60419;48.880;18.036;2022-07-29T07:50:45;5.82;;;3.97;;
72427;SDS011;60419;48.880;18.036;2022-07-29T07:53:30;5.88;;;3.47;;
72427;SDS011;60419;48.880;18.036;2022-07-29T07:56:16;7.07;;;3.65;;
72427;SDS011;60419;48.880;18.036;2022-07-29T07:59:01;7.97;;;3.80;;
72427;SDS011;60419;48.880;18.036;2022-07-29T08:01:47;9.75;;;3.78;;
72427;SDS011;60419;48.880;18.036;2022-07-29T08:04:33;6.10;;;3.88;;
72427;SDS011;60419;48.880;18.036;2022-07-29T08:07:18;5.20;;;3.58;;
72427;SDS011;60419;48.880;18.036;2022-07-29T08:10:04;4.85;;;3.35;;
72427;SDS011;60419;48.880;18.036;2022-07-29T08:12:50;7.05;;;3.72;;
72427;SDS011;60419;48.880;18.036;2022-07-29T08:15:35;9.77;;;3.95;;
72427;SDS011;60419;48.880;18.036;2022-07-29T08:18:20;5.70;;;3.70;;
72427;SDS011;60419;48.880;18.036;2022-07-29T08:21:06;5.72;;;3.97;;
72427;SDS011;60419;48.880;18.036;2022-07-29T08:23:51;5.80;;;3.85;;
72427;SDS011;60419;48.880;18.036;2022-07-29T08:27:00;7.43;;;3.92;;
72427;SDS011;60419;48.880;18.036;2022-07-29T08:29:45;6.00;;;3.63;;
72427;SDS011;60419;48.880;18.036;2022-07-29T08:32:30;6.70;;;4.10;;
72427;SDS011;60419;48.880;18.036;2022-07-29T08:35:16;8.05;;;4.38;;
72427;SDS011;60419;48.880;18.036;2022-07-29T08:38:01;5.20;;;3.40;;
72427;SDS011;60419;48.880;18.036;2022-07-29T08:40:48;5.85;;;3.45;;
72427;SDS011;60419;48.880;18.036;2022-07-29T08:43:33;8.50;;;3.90;;
72427;SDS011;60419;48.880;18.036;2022-07-29T08:46:24;5.07;;;3.67;;
72427;SDS011;60419;48.880;18.036;2022-07-29T08:49:09;4.85;;;3.63;;
72427;SDS011;60419;48.880;18.036;2022-07-29T08:51:55;5.15;;;3.35;;
72427;SDS011;60419;48.880;18.036;2022-07-29T08:54:43;6.55;;;3.38;;
72427;SDS011;60419;48.880;18.036;2022-07-29T08:57:29;5.35;;;3.53;;
72427;SDS011;60419;48.880;18.036;2022-07-29T09:00:15;5.68;;;3.70;;
72427;SDS011;60419;48.880;18.036;2022-07-29T09:03:03;6.00;;;3.33;;
72427;SDS011;60419;48.880;18.036;2022-07-29T09:05:49;4.78;;;3.50;;
72427;SDS011;60419;48.880;18.036;2022-07-29T09:08:36;5.95;;;3.40;;
72427;SDS011;60419;48.880;18.036;2022-07-29T09:11:21;7.18;;;4.00;;
72427;SDS011;60419;48.880;18.036;2022-07-29T09:14:07;5.55;;;3.38;;
72427;SDS011;60419;48.880;18.036;2022-07-29T09:16:54;4.93;;;3.38;;
72427;SDS011;60419;48.880;18.036;2022-07-29T09:19:41;6.20;;;3.75;;
72427;SDS011;60419;48.880;18.036;2022-07-29T09:22:29;5.03;;;3.33;;
72427;SDS011;60419;48.880;18.036;2022-07-29T09:28:24;6.18;;;3.35;;
72427;SDS011;60419;48.880;18.036;2022-07-29T09:31:09;5.53;;;3.60;;
72427;SDS011;60419;48.880;18.036;2022-07-29T09:33:55;4.88;;;3.13;;
72427;SDS011;60419;48.880;18.036;2022-07-29T09:36:48;4.85;;;3.17;;
72427;SDS011;60419;48.880;18.036;2022-07-29T09:39:36;5.28;;;3.33;;
72427;SDS011;60419;48.880;18.036;2022-07-29T09:42:28;6.53;;;3.38;;
72427;SDS011;60419;48.880;18.036;2022-07-29T09:48:14;5.88;;;3.58;;
72427;SDS011;60419;48.880;18.036;2022-07-29T09:51:05;5.35;;;3.10;;
72427;SDS011;60419;48.880;18.036;2022-07-29T09:53:51;6.88;;;3.53;;
72427;SDS011;60419;48.880;18.036;2022-07-29T09:56:39;6.32;;;3.17;;
72427;SDS011;60419;48.880;18.036;2022-07-29T09:59:25;4.68;;;3.63;;
72427;SDS011;60419;48.880;18.036;2022-07-29T10:02:11;7.30;;;3.40;;
72427;SDS011;60419;48.880;18.036;2022-07-29T10:04:58;6.18;;;3.30;;
72427;SDS011;60419;48.880;18.036;2022-07-29T10:07:45;7.35;;;3.63;;
72427;SDS011;60419;48.880;18.036;2022-07-29T10:10:33;5.20;;;3.45;;
72427;SDS011;60419;48.880;18.036;2022-07-29T10:13:20;6.22;;;3.10;;
72427;SDS011;60419;48.880;18.036;2022-07-29T10:16:06;6.10;;;3.25;;
72427;SDS011;60419;48.880;18.036;2022-07-29T10:18:51;5.40;;;3.10;;
72427;SDS011;60419;48.880;18.036;2022-07-29T10:21:37;4.88;;;3.33;;
72427;SDS011;60419;48.880;18.036;2022-07-29T10:24:25;6.28;;;3.63;;
72427;SDS011;60419;48.880;18.036;2022-07-29T10:27:12;6.68;;;3.30;;
72427;SDS011;60419;48.880;18.036;2022-07-29T10:29:57;5.70;;;3.55;;
72427;SDS011;60419;48.880;18.036;2022-07-29T10:38:55;5.38;;;3.20;;
72427;SDS011;60419;48.880;18.036;2022-07-29T10:45:09;6.50;;;3.33;;
72427;SDS011;60419;48.880;18.036;2022-07-29T10:48:04;5.82;;;2.90;;
72427;SDS011;60419;48.880;18.036;2022-07-29T10:50:52;4.03;;;2.90;;
72427;SDS011;60419;48.880;18.036;2022-07-29T10:53:50;6.93;;;3.03;;
72427;SDS011;60419;48.880;18.036;2022-07-29T10:56:37;6.13;;;3.17;;
72427;SDS011;60419;48.880;18.036;2022-07-29T10:59:23;6.93;;;3.05;;
72427;SDS011;60419;48.880;18.036;2022-07-29T11:05:17;4.95;;;3.00;;
72427;SDS011;60419;48.880;18.036;2022-07-29T11:11:41;5.90;;;3.13;;
72427;SDS011;60419;48.880;18.036;2022-07-29T11:14:10;5.38;;;2.78;;
72427;SDS011;60419;48.880;18.036;2022-07-29T11:17:03;6.97;;;3.30;;
72427;SDS011;60419;48.880;18.036;2022-07-29T11:19:50;5.65;;;3.35;;
72427;SDS011;60419;48.880;18.036;2022-07-29T11:22:36;5.65;;;3.22;;
72427;SDS011;60419;48.880;18.036;2022-07-29T11:25:22;8.32;;;3.00;;
72427;SDS011;60419;48.880;18.036;2022-07-29T11:28:12;4.90;;;3.35;;
72427;SDS011;60419;48.880;18.036;2022-07-29T11:31:01;5.32;;;3.33;;
72427;SDS011;60419;48.880;18.036;2022-07-29T11:33:48;5.85;;;3.60;;
72427;SDS011;60419;48.880;18.036;2022-07-29T11:36:33;6.32;;;3.05;;
72427;SDS011;60419;48.880;18.036;2022-07-29T11:39:25;6.53;;;3.10;;
72427;SDS011;60419;48.880;18.036;2022-07-29T11:45:16;5.75;;;3.20;;
72427;SDS011;60419;48.880;18.036;2022-07-29T11:48:07;5.15;;;3.38;;
72427;SDS011;60419;48.880;18.036;2022-07-29T11:51:00;7.97;;;2.97;;
72427;SDS011;60419;48.880;18.036;2022-07-29T11:53:55;5.15;;;3.22;;
72427;SDS011;60419;48.880;18.036;2022-07-29T11:56:42;8.15;;;3.13;;
72427;SDS011;60419;48.880;18.036;2022-07-29T11:59:31;4.68;;;2.85;;
72427;SDS011;60419;48.880;18.036;2022-07-29T12:02:23;5.82;;;2.70;;
72427;SDS011;60419;48.880;18.036;2022-07-29T12:05:09;6.03;;;3.17;;
72427;SDS011;60419;48.880;18.036;2022-07-29T12:08:08;5.63;;;2.90;;
72427;SDS011;60419;48.880;18.036;2022-07-29T12:11:03;5.63;;;3.15;;
72427;SDS011;60419;48.880;18.036;2022-07-29T12:14:00;5.30;;;2.78;;
72427;SDS011;60419;48.880;18.036;2022-07-29T12:16:47;4.75;;;2.95;;
72427;SDS011;60419;48.880;18.036;2022-07-29T12:19:41;3.97;;;2.75;;
72427;SDS011;60419;48.880;18.036;2022-07-29T12:22:31;4.15;;;2.55;;
72427;SDS011;60419;48.880;18.036;2022-07-29T12:25:18;6.28;;;3.00;;
72427;SDS011;60419;48.880;18.036;2022-07-29T12:28:05;4.72;;;3.00;;
72427;SDS011;60419;48.880;18.036;2022-07-29T12:30:52;5.80;;;3.40;;
72427;SDS011;60419;48.880;18.036;2022-07-29T12:33:37;4.57;;;2.88;;
72427;SDS011;60419;48.880;18.036;2022-07-29T12:36:23;5.07;;;2.78;;
72427;SDS011;60419;48.880;18.036;2022-07-29T12:39:09;6.90;;;2.88;;
72427;SDS011;60419;48.880;18.036;2022-07-29T12:41:55;5.72;;;2.90;;
72427;SDS011;60419;48.880;18.036;2022-07-29T12:44:45;5.88;;;2.55;;
72427;SDS011;60419;48.880;18.036;2022-07-29T12:47:31;5.50;;;2.72;;
72427;SDS011;60419;48.880;18.036;2022-07-29T12:50:17;4.55;;;2.97;;
72427;SDS011;60419;48.880;18.036;2022-07-29T12:53:10;6.65;;;2.92;;
72427;SDS011;60419;48.880;18.036;2022-07-29T12:55:56;7.03;;;3.03;;
72427;SDS011;60419;48.880;18.036;2022-07-29T12:58:46;9.02;;;2.90;;
72427;SDS011;60419;48.880;18.036;2022-07-29T13:01:35;6.55;;;3.00;;
72427;SDS011;60419;48.880;18.036;2022-07-29T13:04:31;4.78;;;2.90;;
72427;SDS011;60419;48.880;18.036;2022-07-29T13:07:23;5.80;;;2.58;;
72427;SDS011;60419;48.880;18.036;2022-07-29T13:13:01;4.25;;;2.67;;
72427;SDS011;60419;48.880;18.036;2022-07-29T13:16:06;8.57;;;2.90;;
72427;SDS011;60419;48.880;18.036;2022-07-29T13:19:05;5.50;;;2.63;;
72427;SDS011;60419;48.880;18.036;2022-07-29T13:21:52;5.03;;;2.67;;
72427;SDS011;60419;48.880;18.036;2022-07-29T13:24:47;3.92;;;2.50;;
72427;SDS011;60419;48.880;18.036;2022-07-29T13:27:42;6.70;;;2.70;;
72427;SDS011;60419;48.880;18.036;2022-07-29T13:30:30;5.43;;;2.90;;
72427;SDS011;60419;48.880;18.036;2022-07-29T13:33:16;5.22;;;2.85;;
72427;SDS011;60419;48.880;18.036;2022-07-29T13:36:01;5.22;;;2.90;;
72427;SDS011;60419;48.880;18.036;2022-07-29T13:38:46;5.82;;;2.92;;
72427;SDS011;60419;48.880;18.036;2022-07-29T13:41:32;4.95;;;2.65;;
72427;SDS011;60419;48.880;18.036;2022-07-29T13:44:17;4.97;;;3.08;;
72427;SDS011;60419;48.880;18.036;2022-07-29T13:47:03;4.22;;;2.45;;
72427;SDS011;60419;48.880;18.036;2022-07-29T13:49:48;4.40;;;2.58;;
72427;SDS011;60419;48.880;18.036;2022-07-29T13:52:34;6.88;;;2.83;;
72427;SDS011;60419;48.880;18.036;2022-07-29T13:55:19;7.32;;;2.70;;
72427;SDS011;60419;48.880;18.036;2022-07-29T13:58:05;4.57;;;2.72;;
72427;SDS011;60419;48.880;18.036;2022-07-29T14:00:50;4.10;;;2.72;;
72427;SDS011;60419;48.880;18.036;2022-07-29T14:03:36;4.30;;;2.70;;
72427;SDS011;60419;48.880;18.036;2022-07-29T14:06:25;5.33;;;2.87;;
72427;SDS011;60419;48.880;18.036;2022-07-29T14:09:11;4.22;;;2.88;;
72427;SDS011;60419;48.880;18.036;2022-07-29T14:11:56;5.35;;;2.80;;
72427;SDS011;60419;48.880;18.036;2022-07-29T14:14:42;6.13;;;2.83;;
72427;SDS011;60419;48.880;18.036;2022-07-29T14:17:27;4.93;;;2.95;;
72427;SDS011;60419;48.880;18.036;2022-07-29T14:20:13;5.78;;;2.85;;
72427;SDS011;60419;48.880;18.036;2022-07-29T14:23:00;9.18;;;3.40;;
72427;SDS011;60419;48.880;18.036;2022-07-29T14:25:45;6.95;;;3.15;;
72427;SDS011;60419;48.880;18.036;2022-07-29T14:28:31;4.78;;;2.92;;
72427;SDS011;60419;48.880;18.036;2022-07-29T14:31:17;6.25;;;3.10;;
72427;SDS011;60419;48.880;18.036;2022-07-29T14:34:02;9.43;;;2.83;;
72427;SDS011;60419;48.880;18.036;2022-07-29T14:36:48;5.07;;;2.90;;
72427;SDS011;60419;48.880;18.036;2022-07-29T14:39:33;4.95;;;3.00;;
72427;SDS011;60419;48.880;18.036;2022-07-29T14:42:20;9.73;;;2.78;;
72427;SDS011;60419;48.880;18.036;2022-07-29T14:45:06;5.25;;;3.03;;
72427;SDS011;60419;48.880;18.036;2022-07-29T14:47:54;8.05;;;3.50;;
72427;SDS011;60419;48.880;18.036;2022-07-29T14:50:39;4.40;;;2.78;;
72427;SDS011;60419;48.880;18.036;2022-07-29T14:53:25;6.22;;;3.20;;
72427;SDS011;60419;48.880;18.036;2022-07-29T14:56:10;4.18;;;2.80;;
72427;SDS011;60419;48.880;18.036;2022-07-29T14:58:56;7.63;;;3.05;;
72427;SDS011;60419;48.880;18.036;2022-07-29T15:01:42;6.50;;;3.20;;
72427;SDS011;60419;48.880;18.036;2022-07-29T15:04:28;5.80;;;3.08;;
72427;SDS011;60419;48.880;18.036;2022-07-29T15:07:13;6.10;;;3.00;;
72427;SDS011;60419;48.880;18.036;2022-07-29T15:09:59;5.03;;;2.95;;
72427;SDS011;60419;48.880;18.036;2022-07-29T15:12:45;6.82;;;2.97;;
72427;SDS011;60419;48.880;18.036;2022-07-29T15:15:30;5.25;;;2.97;;
72427;SDS011;60419;48.880;18.036;2022-07-29T15:18:16;4.85;;;2.70;;
72427;SDS011;60419;48.880;18.036;2022-07-29T15:21:01;5.78;;;2.85;;
72427;SDS011;60419;48.880;18.036;2022-07-29T15:23:47;7.70;;;3.30;;
72427;SDS011;60419;48.880;18.036;2022-07-29T15:26:32;5.15;;;3.00;;
72427;SDS011;60419;48.880;18.036;2022-07-29T15:29:18;6.10;;;3.30;;
72427;SDS011;60419;48.880;18.036;2022-07-29T15:32:04;5.78;;;3.13;;
72427;SDS011;60419;48.880;18.036;2022-07-29T15:34:49;6.10;;;2.92;;
72427;SDS011;60419;48.880;18.036;2022-07-29T15:37:35;3.83;;;2.58;;
72427;SDS011;60419;48.880;18.036;2022-07-29T15:40:21;6.80;;;3.00;;
72427;SDS011;60419;48.880;18.036;2022-07-29T15:43:07;5.18;;;3.03;;
72427;SDS011;60419;48.880;18.036;2022-07-29T15:45:52;5.68;;;2.90;;
72427;SDS011;60419;48.880;18.036;2022-07-29T15:48:56;7.20;;;2.85;;
72427;SDS011;60419;48.880;18.036;2022-07-29T15:51:41;4.88;;;3.28;;
72427;SDS011;60419;48.880;18.036;2022-07-29T15:54:27;6.05;;;3.20;;
72427;SDS011;60419;48.880;18.036;2022-07-29T15:57:12;6.85;;;2.95;;
72427;SDS011;60419;48.880;18.036;2022-07-29T15:59:58;6.28;;;3.47;;
72427;SDS011;60419;48.880;18.036;2022-07-29T16:02:43;7.35;;;3.33;;
72427;SDS011;60419;48.880;18.036;2022-07-29T16:05:29;8.68;;;3.50;;
72427;SDS011;60419;48.880;18.036;2022-07-29T16:08:15;8.00;;;3.83;;
72427;SDS011;60419;48.880;18.036;2022-07-29T16:11:00;5.90;;;3.70;;
72427;SDS011;60419;48.880;18.036;2022-07-29T16:13:46;5.20;;;3.53;;
72427;SDS011;60419;48.880;18.036;2022-07-29T16:16:31;8.63;;;3.50;;
72427;SDS011;60419;48.880;18.036;2022-07-29T16:19:17;6.85;;;3.50;;
72427;SDS011;60419;48.880;18.036;2022-07-29T16:22:02;6.07;;;3.85;;
72427;SDS011;60419;48.880;18.036;2022-07-29T16:24:48;7.07;;;3.63;;
72427;SDS011;60419;48.880;18.036;2022-07-29T16:27:33;7.80;;;4.03;;
72427;SDS011;60419;48.880;18.036;2022-07-29T16:30:19;8.35;;;4.18;;
72427;SDS011;60419;48.880;18.036;2022-07-29T16:33:04;7.18;;;3.80;;
72427;SDS011;60419;48.880;18.036;2022-07-29T16:35:50;5.55;;;3.70;;
72427;SDS011;60419;48.880;18.036;2022-07-29T16:38:36;7.85;;;3.50;;
72427;SDS011;60419;48.880;18.036;2022-07-29T16:41:22;7.28;;;3.80;;
72427;SDS011;60419;48.880;18.036;2022-07-29T16:44:07;5.78;;;3.47;;
72427;SDS011;60419;48.880;18.036;2022-07-29T16:46:53;6.95;;;3.60;;
72427;SDS011;60419;48.880;18.036;2022-07-29T16:49:38;8.27;;;3.55;;
72427;SDS011;60419;48.880;18.036;2022-07-29T16:52:23;5.25;;;3.50;;
72427;SDS011;60419;48.880;18.036;2022-07-29T16:55:09;4.65;;;3.30;;
72427;SDS011;60419;48.880;18.036;2022-07-29T16:57:54;6.97;;;3.63;;
72427;SDS011;60419;48.880;18.036;2022-07-29T17:00:40;4.82;;;3.35;;
72427;SDS011;60419;48.880;18.036;2022-07-29T17:03:25;9.80;;;3.40;;
72427;SDS011;60419;48.880;18.036;2022-07-29T17:06:11;5.38;;;3.30;;
72427;SDS011;60419;48.880;18.036;2022-07-29T17:08:56;6.13;;;3.80;;
72427;SDS011;60419;48.880;18.036;2022-07-29T17:11:41;5.70;;;3.50;;
72427;SDS011;60419;48.880;18.036;2022-07-29T17:14:28;5.63;;;3.50;;
72427;SDS011;60419;48.880;18.036;2022-07-29T17:17:17;5.40;;;3.23;;
72427;SDS011;60419;48.880;18.036;2022-07-29T17:20:03;5.50;;;3.15;;